Time;durP1;ratioP1;P1;durP2;ratioP2;P2;SDS_P1;SDS_P2;PMS_P1;PMS_P2;Temp;Humidity;BMP_temperature;BMP_pressure;BME280_temperature;BME280_humidity;BME280_pressure;Samples;Min_cycle;Max_cycle;Signal;HPM_P1;HPM_P2
2023/02/01 00:02:26;;;;;;;24.50;3.60;;;;;;;2.23;100.00;100720.53;7391883;19;20427;-54
2023/02/01 00:04:55;;;;;;;14.43;2.00;;;;;;;2.24;100.00;100703.56;7397123;19;20769;-54
2023/02/01 00:07:25;;;;;;;31.83;3.40;;;;;;;2.37;100.00;100674.81;7393694;19;22307;-54
2023/02/01 00:09:54;;;;;;;13.50;2.07;;;;;;;2.41;100.00;100671.75;7395398;19;20910;-51
2023/02/01 00:12:26;;;;;;;22.43;4.60;;;;;;;2.36;100.00;100647.59;7393136;19;20437;-51
2023/02/01 00:14:55;;;;;;;10.33;2.40;;;;;;;2.31;100.00;100666.72;7396586;19;20403;-53
2023/02/01 00:17:25;;;;;;;15.23;3.03;;;;;;;2.34;100.00;100664.41;7391924;19;21148;-51
2023/02/01 00:19:54;;;;;;;24.20;2.50;;;;;;;2.34;100.00;100666.94;7394777;19;20455;-50
2023/02/01 00:22:24;;;;;;;22.77;4.37;;;;;;;2.43;100.00;100652.34;7392742;19;20799;-54
2023/02/01 00:24:53;;;;;;;16.53;2.77;;;;;;;2.50;100.00;100659.66;7396204;19;20400;-53
2023/02/01 00:27:25;;;;;;;15.93;3.57;;;;;;;2.51;100.00;100646.16;7392721;19;20443;-51
2023/02/01 00:29:57;;;;;;;20.17;3.93;;;;;;;2.53;100.00;100652.25;7395094;19;20432;-49
2023/02/01 00:32:26;;;;;;;25.17;5.07;;;;;;;2.54;100.00;100656.56;7393110;19;20431;-49
2023/02/01 00:34:55;;;;;;;25.80;3.87;;;;;;;2.57;100.00;100645.72;7395905;19;20418;-51
2023/02/01 00:37:25;;;;;;;14.17;2.77;;;;;;;2.62;100.00;100653.69;7391970;19;20437;-51
2023/02/01 00:39:55;;;;;;;23.37;3.30;;;;;;;2.71;100.00;100639.03;7394395;19;20400;-49
2023/02/01 00:42:27;;;;;;;23.47;3.83;;;;;;;2.69;100.00;100655.91;7392394;19;20543;-52
2023/02/01 00:44:57;;;;;;;35.87;4.03;;;;;;;2.72;100.00;100645.91;7395733;19;20415;-54
2023/02/01 00:47:26;;;;;;;16.60;3.20;;;;;;;2.79;100.00;100658.34;7392226;19;20973;-50
2023/02/01 00:49:55;;;;;;;28.80;5.80;;;;;;;2.84;100.00;100663.75;7394123;19;20966;-52
2023/02/01 00:52:25;;;;;;;15.63;3.13;;;;;;;2.88;100.00;100662.31;7392488;19;20466;-53
2023/02/01 00:54:54;;;;;;;19.30;4.10;;;;;;;2.84;100.00;100672.28;7394668;19;20415;-53
2023/02/01 00:57:26;;;;;;;17.47;2.80;;;;;;;2.86;100.00;100674.06;7391172;19;20993;-54
2023/02/01 00:59:56;;;;;;;10.30;2.80;;;;;;;2.91;100.00;100677.81;7393306;19;20989;-50
2023/02/01 01:02:25;;;;;;;32.10;5.57;;;;;;;2.90;100.00;100684.59;7391702;19;20435;-51
2023/02/01 01:04:55;;;;;;;24.63;3.10;;;;;;;2.90;100.00;100683.69;7394577;19;20438;-51
2023/02/01 01:07:24;;;;;;;19.23;4.13;;;;;;;2.95;100.00;100687.47;7391392;19;20435;-49
2023/02/01 01:09:54;;;;;;;36.13;4.67;;;;;;;3.00;100.00;100682.69;7392996;19;20407;-53
2023/02/01 01:12:23;;;;;;;36.73;5.70;;;;;;;3.01;100.00;100679.34;7390898;19;20423;-49
2023/02/01 01:14:55;;;;;;;33.23;4.80;;;;;;;3.03;100.00;100688.88;7394307;19;20383;-50
2023/02/01 01:17:25;;;;;;;42.83;5.10;;;;;;;3.02;100.00;100688.78;7391056;19;20427;-49
2023/02/01 01:19:54;;;;;;;29.73;3.60;;;;;;;3.05;100.00;100694.09;7392969;19;20400;-52
2023/02/01 01:22:24;;;;;;;19.10;3.50;;;;;;;3.05;100.00;100678.81;7391397;19;20984;-52
2023/02/01 01:24:54;;;;;;;35.17;4.90;;;;;;;3.08;100.00;100681.59;7394289;19;20404;-52
2023/02/01 01:27:24;;;;;;;37.17;5.43;;;;;;;3.10;100.00;100677.47;7390873;19;20402;-49
2023/02/01 01:29:56;;;;;;;29.40;4.60;;;;;;;3.08;100.00;100681.59;7393447;19;20426;-53
2023/02/01 01:32:26;;;;;;;30.33;4.67;;;;;;;3.11;100.00;100681.78;7391031;19;20460;-49
2023/02/01 01:34:55;;;;;;;49.97;6.23;;;;;;;3.09;100.00;100671.47;7393860;19;20392;-49
2023/02/01 01:37:25;;;;;;;21.00;4.07;;;;;;;3.09;100.00;100662.94;7390329;19;20443;-49
2023/02/01 01:39:55;;;;;;;26.43;3.23;;;;;;;3.07;100.00;100677.22;7393157;19;20406;-51
2023/02/01 01:42:25;;;;;;;21.20;4.80;;;;;;;3.06;100.00;100668.72;7390905;19;20659;-53
2023/02/01 01:45:08;;;;;;;37.83;3.70;;;;;;;3.10;100.00;100657.06;7393395;19;20426;-56
2023/02/01 01:47:42;;;;;;;23.30;4.50;;;;;;;3.12;100.00;100662.28;7384965;19;20399;-50
2023/02/01 01:50:16;;;;;;;33.90;5.23;;;;;;;3.09;100.00;100666.38;7385648;19;20411;-54
2023/02/01 01:52:47;;;;;;;26.00;4.60;;;;;;;3.08;100.00;100666.28;7383730;19;20433;-55
2023/02/01 01:55:17;;;;;;;18.80;3.73;;;;;;;3.06;100.00;100668.72;7386891;19;20391;-50
2023/02/01 01:57:50;;;;;;;31.13;4.10;;;;;;;3.09;100.00;100663.81;7382722;19;20419;-53
2023/02/01 02:00:23;;;;;;;29.63;4.03;;;;;;;3.09;100.00;100668.91;7389354;19;20520;-52
2023/02/01 02:02:57;;;;;;;35.93;4.60;;;;;;;3.11;100.00;100663.94;7384183;19;20950;-55
2023/02/01 02:05:27;;;;;;;41.23;5.67;;;;;;;3.14;100.00;100668.38;7387346;19;20396;-53
2023/02/01 02:08:00;;;;;;;30.57;3.87;;;;;;;3.15;100.00;100667.59;7384543;19;20419;-54
2023/02/01 02:13:13;;;;;;;31.87;5.43;;;;;;;3.17;100.00;100666.06;7384142;19;20435;-51
2023/02/01 02:15:48;;;;;;;28.27;5.80;;;;;;;3.20;100.00;100661.16;7387907;19;20383;-52
2023/02/01 02:18:21;;;;;;;43.23;5.20;;;;;;;3.20;100.00;100656.06;7385702;19;21184;-51
2023/02/01 02:21:04;;;;;;;32.87;6.03;;;;;;;3.20;100.00;100658.59;7393106;19;20415;-52
2023/02/01 02:24:14;;;;;;;36.97;5.07;;;;;;;3.20;100.00;100640.75;7392468;19;20434;-53
2023/02/01 02:26:56;;;;;;;31.20;3.50;;;;;;;3.23;100.00;100646.09;7389486;19;20407;-53
2023/02/01 02:29:48;;;;;;;36.37;4.90;;;;;;;3.22;100.00;100634.97;7399174;19;20384;-54
2023/02/01 02:32:41;;;;;;;27.10;4.50;;;;;;;3.23;100.00;100628.22;7396032;19;20446;-51
2023/02/01 02:35:19;;;;;;;24.10;4.43;;;;;;;3.25;100.00;100629.22;7399795;19;20403;-55
2023/02/01 02:37:55;;;;;;;32.90;5.60;;;;;;;3.28;100.00;100631.97;7394142;19;20446;-52
2023/02/01 02:40:31;;;;;;;25.53;4.10;;;;;;;3.27;100.00;100611.47;7398123;19;21884;-55
2023/02/01 02:48:40;;;;;;;20.73;2.87;;;;;;;3.19;100.00;100613.50;7394728;19;21000;-51
2023/02/01 03:04:56;;;;;;;26.87;4.40;;;;;;;2.83;100.00;100492.13;7399260;19;20451;-54
2023/02/01 03:07:58;;;;;;;28.63;4.73;;;;;;;2.78;100.00;100498.56;7396016;19;20431;-54
2023/02/01 03:10:39;;;;;;;38.73;5.87;;;;;;;2.76;100.00;100469.53;7397835;19;20442;-53
2023/02/01 03:13:10;;;;;;;19.77;3.30;;;;;;;2.75;100.00;100466.88;7395388;19;20438;-53
2023/02/01 03:15:42;;;;;;;8.90;1.87;;;;;;;2.70;100.00;100457.28;7397786;19;20399;-52
2023/02/01 03:18:16;;;;;;;13.20;2.10;;;;;;;2.70;100.00;100448.75;7392624;19;20454;-53
2023/02/01 03:20:49;;;;;;;49.27;6.63;;;;;;;2.69;100.00;100439.34;7396091;19;20446;-49
2023/02/01 03:23:22;;;;;;;40.70;6.10;;;;;;;2.68;100.00;100460.50;7394944;19;20447;-51
2023/02/01 03:25:55;;;;;;;20.87;3.40;;;;;;;2.67;100.00;100407.78;7398038;19;20435;-53
2023/02/01 03:28:26;;;;;;;20.80;4.60;;;;;;;2.66;100.00;100395.81;7394566;19;20442;-48
2023/02/01 03:30:56;;;;;;;23.70;3.20;;;;;;;2.64;100.00;100395.72;7396155;19;20431;-50
2023/02/01 03:33:29;;;;;;;23.20;3.17;;;;;;;2.63;100.00;100391.41;7395043;19;20534;-54
2023/02/01 03:36:22;;;;;;;26.97;5.67;;;;;;;2.64;100.00;100356.59;7397714;19;20392;-51
2023/02/01 03:38:59;;;;;;;30.37;5.20;;;;;;;2.62;100.00;100348.00;7393120;19;20450;-50
2023/02/01 03:41:31;;;;;;;22.47;3.97;;;;;;;2.62;100.00;100351.41;7396059;19;20434;-49
2023/02/01 03:44:06;;;;;;;30.97;4.33;;;;;;;2.64;100.00;100337.13;7394587;19;20434;-50
2023/02/01 03:46:40;;;;;;;23.60;3.10;;;;;;;2.64;100.00;100333.69;7396888;19;20413;-51
2023/02/01 03:49:12;;;;;;;26.73;3.60;;;;;;;2.61;100.00;100295.28;7396151;19;20458;-51
2023/02/01 03:51:43;;;;;;;18.30;3.23;;;;;;;2.64;100.00;100313.31;7392620;19;20469;-50
2023/02/01 03:54:18;;;;;;;29.67;3.37;;;;;;;2.64;100.00;100305.66;7396178;19;20424;-51
2023/02/01 03:56:49;;;;;;;24.03;3.70;;;;;;;2.65;100.00;100292.13;7393636;19;20396;-49
2023/02/01 03:59:18;;;;;;;25.63;3.33;;;;;;;2.62;100.00;100290.25;7395108;19;20419;-54
2023/02/01 04:01:48;;;;;;;14.10;2.50;;;;;;;2.60;100.00;100284.19;7390021;19;20462;-51
2023/02/01 04:04:19;;;;;;;25.53;3.47;;;;;;;2.60;100.00;100270.59;7396744;19;20415;-49
2023/02/01 04:06:49;;;;;;;16.97;3.30;;;;;;;2.60;100.00;100261.28;7393678;19;20399;-53
2023/02/01 04:09:21;;;;;;;13.47;3.17;;;;;;;2.63;100.00;100252.94;7396051;19;20408;-51
2023/02/01 04:11:51;;;;;;;32.90;4.97;;;;;;;2.66;100.00;100251.47;7391854;19;20435;-49
2023/02/01 04:14:20;;;;;;;21.30;4.00;;;;;;;2.62;100.00;100271.56;7396597;19;20399;-51
2023/02/01 04:16:50;;;;;;;16.90;3.50;;;;;;;2.64;100.00;100285.28;7372494;19;20431;-51
2023/02/01 04:19:20;;;;;;;22.40;3.77;;;;;;;2.63;100.00;100298.81;7393625;19;20408;-49
2023/02/01 04:21:49;;;;;;;20.07;3.80;;;;;;;2.62;100.00;100269.03;7390402;19;20439;-50
2023/02/01 04:24:21;;;;;;;22.70;3.70;;;;;;;2.59;100.00;100274.78;7396323;19;20459;-56
2023/02/01 04:26:50;;;;;;;25.63;4.43;;;;;;;2.46;100.00;100267.13;7392227;19;20418;-51
2023/02/01 04:29:20;;;;;;;15.10;2.53;;;;;;;2.33;100.00;100255.22;7395726;19;20427;-50
2023/02/01 04:31:50;;;;;;;16.83;2.53;;;;;;;2.23;100.00;100246.97;7391185;19;20784;-50
2023/02/01 04:34:20;;;;;;;25.90;3.63;;;;;;;2.36;100.00;100219.78;7395841;19;20400;-48
2023/02/01 04:36:49;;;;;;;17.77;2.30;;;;;;;2.35;100.00;100223.13;7393340;19;20733;-49
2023/02/01 04:39:21;;;;;;;21.00;3.30;;;;;;;2.41;100.00;100208.25;7393777;19;20412;-49
2023/02/01 04:41:51;;;;;;;23.63;3.70;;;;;;;2.45;100.00;100197.47;7389606;19;21093;-51
2023/02/01 04:44:21;;;;;;;18.20;3.63;;;;;;;2.49;100.00;100183.25;7396041;19;20415;-49
2023/02/01 04:46:51;;;;;;;14.73;2.63;;;;;;;2.43;100.00;100173.56;7392737;19;20404;-49
2023/02/01 04:49:21;;;;;;;26.27;3.83;;;;;;;2.41;100.00;100175.16;7394674;19;20386;-51
2023/02/01 04:51:51;;;;;;;18.07;1.77;;;;;;;2.40;100.00;100170.81;7390795;19;20435;-49
2023/02/01 04:54:23;;;;;;;17.60;3.13;;;;;;;2.34;100.00;100171.31;7396005;19;20885;-50
2023/02/01 04:56:52;;;;;;;20.53;2.63;;;;;;;2.32;100.00;100162.69;7391940;19;20732;-52
2023/02/01 04:59:22;;;;;;;19.23;2.80;;;;;;;2.24;100.00;100162.19;7393674;19;20383;-52
2023/02/01 05:01:51;;;;;;;24.90;2.90;;;;;;;2.22;100.00;100153.56;7390533;19;20457;-55
2023/02/01 05:04:20;;;;;;;17.03;3.30;;;;;;;2.19;100.00;100150.81;7395190;19;20382;-53
2023/02/01 05:06:50;;;;;;;21.47;1.93;;;;;;;2.15;100.00;100131.00;7391578;19;20392;-49
2023/02/01 05:09:21;;;;;;;8.90;2.00;;;;;;;2.13;100.00;100119.88;7394429;19;20934;-49
2023/02/01 05:14:35;;;;;;;19.37;2.43;;;;;;;2.16;100.00;100112.44;7394082;19;20408;-49
2023/02/01 05:17:05;;;;;;;18.37;1.87;;;;;;;2.13;100.00;100096.94;7391183;19;20756;-48
2023/02/01 05:19:34;;;;;;;12.47;1.80;;;;;;;2.05;100.00;100093.03;7392392;19;20412;-49
2023/02/01 05:22:03;;;;;;;5.93;1.50;;;;;;;1.98;100.00;100087.53;7389508;19;20419;-47
2023/02/01 05:24:33;;;;;;;1.97;0.70;;;;;;;1.88;100.00;100069.91;7393544;19;20395;-48
2023/02/01 05:27:05;;;;;;;8.03;1.60;;;;;;;1.82;100.00;100049.16;7390128;19;20386;-49
2023/02/01 05:29:34;;;;;;;6.13;1.07;;;;;;;1.73;100.00;100050.31;7392748;19;20919;-49
2023/02/01 05:32:04;;;;;;;1.93;0.80;;;;;;;1.71;100.00;100045.91;7388978;19;20410;-49
2023/02/01 05:34:49;;;;;;;7.70;2.87;;;;;;;1.68;100.00;100051.66;7394066;19;20406;-51
2023/02/01 05:37:19;;;;;;;6.93;1.47;;;;;;;1.67;100.00;100072.78;7389110;19;20415;-49
2023/02/01 05:39:48;;;;;;;3.00;0.97;;;;;;;1.60;100.00;100084.22;7392042;19;20419;-50
2023/02/01 05:42:20;;;;;;;7.10;1.10;;;;;;;1.56;100.00;100104.25;7390302;19;21058;-53
2023/02/01 05:44:50;;;;;;;1.37;0.57;;;;;;;1.41;100.00;100069.41;7394031;19;20471;-52
2023/02/01 05:47:20;;;;;;;4.60;1.50;;;;;;;1.19;100.00;100074.69;7390173;19;20422;-51
2023/02/01 05:49:50;;;;;;;3.73;0.80;;;;;;;1.15;100.00;100081.22;7392529;19;20803;-55
2023/02/01 05:52:20;;;;;;;6.10;1.20;;;;;;;1.13;100.00;100087.81;7389846;19;20390;-51
2023/02/01 05:54:49;;;;;;;5.17;1.27;;;;;;;1.15;100.00;100081.22;7401270;19;20396;-49
2023/02/01 05:57:21;;;;;;;7.30;1.07;;;;;;;1.18;100.00;100086.50;7397085;19;20406;-54
2023/02/01 05:59:51;;;;;;;6.50;1.00;;;;;;;1.18;100.00;100066.16;7399080;19;20411;-51
2023/02/01 06:02:21;;;;;;;13.87;1.30;;;;;;;1.21;100.00;100076.56;7396843;19;20407;-52
2023/02/01 06:04:51;;;;;;;2.20;0.80;;;;;;;1.20;100.00;100079.88;7400995;19;20395;-51
2023/02/01 06:07:20;;;;;;;2.37;0.90;;;;;;;1.19;100.00;100065.38;7397763;19;20445;-49
2023/02/01 06:09:50;;;;;;;4.73;1.00;;;;;;;1.08;100.00;100062.09;7399717;19;20416;-48
2023/02/01 06:12:22;;;;;;;2.80;0.80;;;;;;;1.04;100.00;100064.34;7396324;19;20428;-49
2023/02/01 06:14:51;;;;;;;2.07;0.93;;;;;;;1.06;100.00;100063.66;7400960;19;20395;-52
2023/02/01 06:17:21;;;;;;;13.20;1.37;;;;;;;1.07;100.00;100046.75;7396324;19;20788;-49
2023/02/01 06:19:50;;;;;;;1.67;0.70;;;;;;;1.03;100.00;100042.25;7398843;19;20445;-47
2023/02/01 06:22:22;;;;;;;4.50;1.17;;;;;;;1.02;100.00;100037.94;7396690;19;20418;-50
2023/02/01 06:24:51;;;;;;;4.50;1.70;;;;;;;1.03;100.00;100027.88;7400010;19;20398;-52
2023/02/01 06:27:23;;;;;;;6.83;1.43;;;;;;;1.02;100.00;100056.59;7396477;19;20411;-51
2023/02/01 06:29:54;;;;;;;10.23;1.30;;;;;;;1.03;100.00;100017.72;7398774;19;20392;-51
2023/02/01 06:32:24;;;;;;;4.53;2.13;;;;;;;1.05;100.00;99990.75;7394481;19;21247;-50
2023/02/01 06:34:55;;;;;;;8.63;1.50;;;;;;;1.06;100.00;100001.78;7399869;19;20387;-51
2023/02/01 06:37:27;;;;;;;6.83;1.47;;;;;;;1.08;100.00;99990.09;7396783;19;20415;-52
2023/02/01 06:39:56;;;;;;;12.03;3.00;;;;;;;1.13;100.00;99981.09;7397892;19;20411;-48
2023/02/01 06:42:28;;;;;;;5.70;0.83;;;;;;;1.11;100.00;99977.56;7396264;19;20406;-51
2023/02/01 06:44:58;;;;;;;6.60;1.57;;;;;;;1.08;100.00;99973.16;7399530;19;20753;-54
2023/02/01 06:47:27;;;;;;;6.43;2.13;;;;;;;1.10;100.00;99973.28;7396493;19;20796;-49
2023/02/01 06:49:57;;;;;;;10.97;2.50;;;;;;;1.17;100.00;99961.84;7398076;19;20938;-53
2023/02/01 06:52:26;;;;;;;11.53;2.27;;;;;;;1.19;100.00;99953.56;7396136;19;20430;-51
2023/02/01 06:54:55;;;;;;;12.87;2.00;;;;;;;1.27;100.00;99948.13;7399153;19;20409;-48
2023/02/01 06:57:27;;;;;;;14.00;2.43;;;;;;;1.34;100.00;99947.75;7391932;19;20422;-53
2023/02/01 06:59:59;;;;;;;9.23;2.80;;;;;;;1.40;100.00;99943.06;7397173;19;20427;-49
2023/02/01 07:02:28;;;;;;;8.77;1.53;;;;;;;1.47;100.00;99935.06;7393434;19;20439;-53
2023/02/01 07:04:58;;;;;;;16.77;2.40;;;;;;;1.57;100.00;99938.19;7397771;19;20384;-50
2023/02/01 07:07:27;;;;;;;21.13;4.20;;;;;;;1.64;100.00;99960.66;7395206;19;20444;-52
2023/02/01 07:09:57;;;;;;;19.07;2.90;;;;;;;1.70;100.00;99942.41;7397654;19;20416;-52
2023/02/01 07:12:26;;;;;;;16.53;3.00;;;;;;;1.78;100.00;99925.97;7395172;19;21053;-49
2023/02/01 07:14:59;;;;;;;23.20;2.97;;;;;;;1.85;100.00;99927.25;7398524;19;20420;-49
2023/02/01 07:17:29;;;;;;;17.73;2.90;;;;;;;1.98;100.00;99929.78;7395140;19;20802;-52
2023/02/01 07:19:59;;;;;;;11.90;2.20;;;;;;;2.10;100.00;99910.97;7396684;19;20762;-50
2023/02/01 07:22:29;;;;;;;19.60;3.73;;;;;;;2.16;100.00;99919.84;7395117;19;20443;-56
2023/02/01 07:24:58;;;;;;;12.30;2.07;;;;;;;2.18;100.00;99914.88;7397775;19;20396;-52
2023/02/01 07:27:27;;;;;;;23.40;3.17;;;;;;;2.18;100.00;99917.41;7395047;19;20431;-50
2023/02/01 07:30:01;;;;;;;26.80;4.03;;;;;;;2.26;100.00;99900.94;7396924;19;20400;-48
2023/02/01 07:32:31;;;;;;;29.53;3.73;;;;;;;2.33;100.00;99886.94;7392730;19;20444;-51
2023/02/01 07:35:01;;;;;;;24.27;5.20;;;;;;;2.35;100.00;99902.31;7397742;19;20400;-52
2023/02/01 07:37:30;;;;;;;39.30;3.90;;;;;;;2.39;100.00;99896.59;7394926;19;20435;-49
2023/02/01 07:40:00;;;;;;;23.43;3.40;;;;;;;2.42;100.00;99884.06;7396651;19;20927;-52
2023/02/01 07:42:29;;;;;;;34.57;5.30;;;;;;;2.47;100.00;99892.88;7395041;19;20478;-48
2023/02/01 07:45:02;;;;;;;19.73;4.30;;;;;;;2.49;100.00;99919.31;7397603;19;20761;-48
2023/02/01 07:47:49;;;;;;;18.47;3.50;;;;;;;2.50;100.00;99890.50;7391123;19;20458;-49
2023/02/01 07:50:19;;;;;;;15.23;2.80;;;;;;;2.53;100.00;99890.69;7395657;19;20443;-53
2023/02/01 07:52:48;;;;;;;36.60;4.00;;;;;;;2.56;100.00;99885.78;7394041;19;20430;-52
2023/02/01 07:55:18;;;;;;;27.40;4.47;;;;;;;2.55;100.00;99889.13;7397593;19;20411;-53
2023/02/01 07:57:48;;;;;;;23.33;4.90;;;;;;;2.57;100.00;99894.31;7391931;19;20438;-52
2023/02/01 08:03:03;;;;;;;31.10;3.80;;;;;;;2.64;100.00;99918.47;7392753;19;20649;-55
2023/02/01 08:05:33;;;;;;;32.00;4.80;;;;;;;2.67;100.00;99893.19;7396095;19;20414;-50
2023/02/01 08:08:03;;;;;;;26.90;5.00;;;;;;;2.68;100.00;99887.28;7393342;19;20462;-49
2023/02/01 08:10:32;;;;;;;37.77;5.27;;;;;;;2.71;100.00;99895.09;7394436;19;20447;-49
2023/02/01 08:13:02;;;;;;;33.30;4.60;;;;;;;2.76;100.00;99901.34;7392909;19;20430;-49
2023/02/01 08:15:34;;;;;;;28.33;4.83;;;;;;;2.81;100.00;99911.81;7392375;19;20404;-53
2023/02/01 08:18:04;;;;;;;34.93;4.77;;;;;;;2.83;100.00;99916.22;7392270;19;20446;-49
2023/02/01 08:20:35;;;;;;;31.30;4.30;;;;;;;2.89;100.00;99923.38;7394568;19;20447;-48
2023/02/01 08:23:05;;;;;;;27.30;4.30;;;;;;;2.94;100.00;99928.72;7392875;19;20435;-50
2023/02/01 08:25:36;;;;;;;31.03;4.73;;;;;;;3.00;100.00;99918.91;7395654;19;20414;-51
2023/02/01 08:28:05;;;;;;;30.73;3.93;;;;;;;3.04;100.00;99914.84;7384895;19;20527;-48
2023/02/01 08:30:38;;;;;;;32.47;4.27;;;;;;;3.05;100.00;99919.16;7393876;19;20962;-47
2023/02/01 08:33:08;;;;;;;37.50;5.60;;;;;;;3.08;100.00;99921.91;7392090;19;20481;-47
2023/02/01 08:35:38;;;;;;;38.43;3.93;;;;;;;3.10;100.00;99921.22;7396265;19;20404;-49
2023/02/01 08:38:12;;;;;;;20.00;3.07;;;;;;;3.13;100.00;99924.72;7391913;19;20491;-53
2023/02/01 08:40:42;;;;;;;22.83;2.77;;;;;;;3.09;100.00;99921.09;7394055;19;20449;-51
2023/02/01 08:43:11;;;;;;;18.70;2.90;;;;;;;3.01;100.00;99910.44;7388109;19;20443;-50
2023/02/01 08:45:43;;;;;;;20.40;2.57;;;;;;;2.99;100.00;99891.66;7391305;19;20760;-56
2023/02/01 08:48:13;;;;;;;16.97;3.30;;;;;;;2.97;100.00;99908.50;7388038;19;20534;-47
2023/02/01 08:50:43;;;;;;;15.10;2.80;;;;;;;2.91;100.00;99895.41;7389646;19;20466;-50
2023/02/01 08:53:13;;;;;;;17.00;3.40;;;;;;;2.84;100.00;99900.13;7387341;19;20447;-48
2023/02/01 08:55:43;;;;;;;21.43;3.37;;;;;;;2.79;100.00;99904.09;7391534;19;20418;-51
2023/02/01 08:58:13;;;;;;;12.30;2.60;;;;;;;2.83;100.00;99900.94;7389103;19;20447;-51
2023/02/01 09:00:47;;;;;;;17.90;2.40;;;;;;;2.89;100.00;99899.53;7390487;19;20446;-55
2023/02/01 09:03:17;;;;;;;18.43;2.73;;;;;;;2.93;100.00;99886.19;7390083;19;20439;-55
2023/02/01 09:05:47;;;;;;;10.83;2.33;;;;;;;3.01;100.00;99892.63;7393939;19;20408;-52
2023/02/01 09:08:19;;;;;;;8.97;1.70;;;;;;;3.08;100.00;99896.41;7389828;19;21085;-54
2023/02/01 09:10:49;;;;;;;13.83;2.03;;;;;;;3.14;100.00;99900.97;7386970;19;20503;-52
2023/02/01 09:13:19;;;;;;;27.03;4.83;;;;;;;3.16;100.00;99907.94;7383314;19;21447;-57
2023/02/01 09:15:53;;;;;;;11.30;3.50;;;;;;;3.21;100.00;99918.38;7389090;19;20414;-52
2023/02/01 09:18:22;;;;;;;27.90;3.10;;;;;;;3.22;100.00;99926.13;7385787;19;20450;-53
2023/02/01 09:20:52;;;;;;;24.40;2.80;;;;;;;3.31;100.00;99933.44;7388295;19;20436;-49
2023/02/01 09:23:22;;;;;;;17.57;3.20;;;;;;;3.40;100.00;99961.13;7386456;19;20466;-49
2023/02/01 09:25:52;;;;;;;13.70;1.77;;;;;;;3.49;100.00;100001.59;7389468;19;20407;-51
2023/02/01 09:28:22;;;;;;;17.23;3.07;;;;;;;3.50;100.00;100026.31;7392137;19;20807;-48
2023/02/01 09:30:58;;;;;;;19.63;3.13;;;;;;;3.59;100.00;100065.09;7395330;19;20507;-49
2023/02/01 09:33:28;;;;;;;13.37;2.20;;;;;;;3.64;100.00;100101.13;7395439;19;20447;-52
2023/02/01 09:35:58;;;;;;;14.87;2.90;;;;;;;3.66;100.00;100150.56;7401328;19;20407;-54
2023/02/01 09:38:28;;;;;;;21.47;3.10;;;;;;;3.83;100.00;100209.38;7398398;19;20974;-53
2023/02/01 09:40:58;;;;;;;26.97;2.47;;;;;;;3.84;100.00;100310.69;7399275;19;20438;-50
2023/02/01 09:43:38;;;;;;;18.23;4.80;;;;;;;3.80;100.00;100383.63;7397644;19;20786;-54
2023/02/01 09:46:21;;;;;;;11.93;2.93;;;;;;;3.80;100.00;100439.78;7401546;19;20773;-51
2023/02/01 09:48:52;;;;;;;28.50;3.87;;;;;;;3.79;100.00;100463.53;7398243;19;20435;-52
2023/02/01 09:51:24;;;;;;;36.07;4.20;;;;;;;3.77;100.00;100472.75;7398389;19;20457;-49
2023/02/01 09:54:01;;;;;;;5.90;2.40;;;;;;;3.77;100.00;100499.16;7396174;19;20431;-51
2023/02/01 09:56:38;;;;;;;23.50;3.60;;;;;;;3.80;100.00;100510.34;7399751;19;20415;-49
2023/02/01 09:59:13;;;;;;;19.00;2.33;;;;;;;3.83;100.00;100528.41;7400079;19;20450;-52
2023/02/01 10:01:45;;;;;;;22.53;3.77;;;;;;;3.84;100.00;100554.03;7394838;19;20447;-55
2023/02/01 10:04:16;;;;;;;21.83;4.60;;;;;;;3.89;100.00;100554.34;7400243;19;20435;-54
2023/02/01 10:07:00;;;;;;;9.10;1.97;;;;;;;3.95;100.00;100554.72;7397433;19;20401;-49
2023/02/01 10:09:45;;;;;;;30.37;8.10;;;;;;;3.99;100.00;100559.25;7399982;19;20816;-48
2023/02/01 10:12:45;;;;;;;39.63;4.07;;;;;;;3.97;100.00;100600.78;7395838;19;20490;-49
2023/02/01 10:15:26;;;;;;;31.00;4.60;;;;;;;3.88;100.00;100604.53;7398450;19;20761;-53
2023/02/01 10:18:19;;;;;;;33.57;5.30;;;;;;;3.81;100.00;100578.47;7395887;19;20439;-52
2023/02/01 10:20:58;;;;;;;24.57;4.20;;;;;;;3.73;100.00;100589.06;7397824;19;20454;-52
2023/02/01 10:23:46;;;;;;;24.77;4.77;;;;;;;3.62;100.00;100590.00;7397211;19;20457;-52
2023/02/01 10:26:20;;;;;;;23.80;4.67;;;;;;;3.61;100.00;100573.84;7399863;19;20426;-51
2023/02/01 10:28:53;;;;;;;12.93;2.97;;;;;;;3.53;100.00;100577.53;7393727;19;20451;-52
2023/02/01 10:31:26;;;;;;;26.70;5.20;;;;;;;3.50;100.00;100542.47;7393344;19;20458;-56
2023/02/01 10:34:00;;;;;;;16.43;2.67;;;;;;;3.47;100.00;100534.63;7386024;19;20465;-57
2023/02/01 10:36:32;;;;;;;20.60;3.43;;;;;;;3.50;100.00;100518.66;7397601;19;20403;-59
2023/02/01 10:39:02;;;;;;;16.30;2.90;;;;;;;3.53;100.00;100508.63;7393314;19;20454;-53
2023/02/01 10:41:35;;;;;;;21.83;4.93;;;;;;;3.59;100.00;100483.53;7394631;19;20451;-53
2023/02/01 10:44:06;;;;;;;25.90;4.33;;;;;;;3.61;100.00;100481.97;7396681;19;20466;-52
2023/02/01 10:46:36;;;;;;;20.67;3.43;;;;;;;3.60;100.00;100467.44;7397481;19;20758;-51
2023/02/01 10:49:15;;;;;;;13.33;3.33;;;;;;;3.58;100.00;100451.16;7397111;19;20443;-51
2023/02/01 10:51:47;;;;;;;16.70;2.40;;;;;;;3.61;100.00;100436.06;7392759;19;20439;-53
2023/02/01 10:54:20;;;;;;;23.73;2.80;;;;;;;3.59;100.00;100441.84;7394377;19;20763;-53
2023/02/01 10:56:52;;;;;;;16.83;2.17;;;;;;;3.56;100.00;100424.66;7390296;19;20412;-53
2023/02/01 10:59:23;;;;;;;12.43;2.07;;;;;;;3.54;100.00;100426.22;7397763;19;20411;-50
2023/02/01 11:02:01;;;;;;;12.17;3.37;;;;;;;3.55;100.00;100420.34;7393332;19;20431;-54
2023/02/01 11:04:35;;;;;;;19.73;2.90;;;;;;;3.58;100.00;100419.66;7398487;19;20395;-58
2023/02/01 11:07:10;;;;;;;22.00;2.83;;;;;;;3.62;100.00;100412.28;7392596;19;20792;-54
2023/02/01 11:09:42;;;;;;;28.53;2.80;;;;;;;3.64;100.00;100404.75;7390687;19;20969;-55
2023/02/01 11:12:26;;;;;;;12.73;2.87;;;;;;;3.60;100.00;100413.84;7390563;19;20431;-55
2023/02/01 11:14:59;;;;;;;24.83;5.00;;;;;;;3.57;100.00;100416.22;7396366;19;20418;-52
2023/02/01 11:17:32;;;;;;;9.00;2.37;;;;;;;3.53;100.00;100404.03;7393524;19;20830;-54
2023/02/01 11:20:11;;;;;;;13.07;2.73;;;;;;;3.52;100.00;100399.72;7399385;19;20957;-54
2023/02/01 11:22:48;;;;;;;15.00;2.60;;;;;;;3.54;100.00;100413.44;7391320;19;20827;-56
2023/02/01 11:25:20;;;;;;;17.77;2.97;;;;;;;3.56;100.00;100399.16;7393287;19;21052;-55
2023/02/01 11:27:51;;;;;;;14.23;2.80;;;;;;;3.56;100.00;100396.59;7390054;19;20527;-52
2023/02/01 11:30:33;;;;;;;16.13;3.07;;;;;;;3.53;100.00;100401.47;7395008;19;20951;-55
2023/02/01 11:33:04;;;;;;;20.30;3.23;;;;;;;3.57;100.00;100382.16;7392009;19;20465;-51
2023/02/01 11:35:40;;;;;;;28.10;4.17;;;;;;;3.58;100.00;100384.81;7395014;19;20430;-57
2023/02/01 11:38:18;;;;;;;15.33;2.63;;;;;;;3.64;100.00;100376.69;7392006;19;20438;-52
2023/02/01 11:40:48;;;;;;;12.60;2.30;;;;;;;3.64;100.00;100375.00;7394180;19;20438;-53
2023/02/01 11:43:25;;;;;;;10.37;2.23;;;;;;;3.70;100.00;100371.94;7390802;19;20989;-54
2023/02/01 11:46:00;;;;;;;11.87;2.47;;;;;;;3.74;100.00;100365.38;7395837;19;20466;-51
2023/02/01 11:48:31;;;;;;;12.57;2.20;;;;;;;3.78;100.00;100365.66;7391942;19;20446;-52
2023/02/01 11:51:22;;;;;;;18.70;3.37;;;;;;;3.80;100.00;100363.22;7391402;19;20805;-54
2023/02/01 11:54:07;;;;;;;10.57;2.03;;;;;;;3.80;100.00;100354.66;7392417;19;20435;-54
2023/02/01 11:56:39;;;;;;;13.80;2.60;;;;;;;3.80;100.00;100365.78;7395011;19;20421;-54
2023/02/01 11:59:22;;;;;;;11.17;2.40;;;;;;;3.82;100.00;100369.28;7394776;19;20432;-58
2023/02/01 12:02:16;;;;;;;25.67;3.07;;;;;;;3.69;100.00;100367.63;7390549;19;20431;-58
2023/02/01 12:05:09;;;;;;;15.00;1.73;;;;;;;3.54;100.00;100364.13;7394828;19;20402;-56
2023/02/01 12:07:52;;;;;;;8.47;1.50;;;;;;;3.51;100.00;100363.16;7390657;19;20442;-58
2023/02/01 12:10:31;;;;;;;15.30;3.23;;;;;;;3.51;100.00;100359.69;7393653;19;20435;-52
2023/02/01 12:13:10;;;;;;;16.60;2.30;;;;;;;3.47;100.00;100353.53;7387143;19;20442;-57